Weather observations for the past three days for
Canby Airfield
Imperial (Metric)
Date Time (cdt) Wind (mph) Vis. (mi.) Weather Sky Cond. Temperature (ºF) Relative Humidity Wind Chill (°F) Heat Index (°F) Pressure Precipitation (in)
Air Dwpt 6 hour altimeter (in) sea level (mb) 1 hr 3 hr 6 hr
Max. Min.
02 17:15 SW 12 G 18 10.00 Overcast OVC110 67.6 26.2 21% 29.87 0.0
02 16:55 SW 14 G 20 10.00 Overcast OVC110 68.2 26.2 21% 29.87 0.0
02 16:35 SW 15 G 20 10.00 Overcast OVC110 69.3 26.2 20% 29.88 0.0
02 16:15 SW 14 G 21 10.00 Overcast OVC110 68 25.9 20% 29.9 0.0
02 15:55 SW 9 G 22 10.00 Overcast SCT075 OVC110 66.7 25.2 21% 29.9 0.0
02 15:35 SW 21 G 25 10.00 Mostly Cloudy and Breezy SCT075 BKN110 66.7 27 22% 29.92 0.0
02 15:15 SW 15 G 22 10.00 Partly Cloudy SCT120 68.5 28.9 23% 29.93 0.0
02 14:55 SW 17 G 25 10.00 Fair CLR 68.5 28.6 22% 29.93 0.0
02 14:35 SW 15 G 22 10.00 Fair CLR 69.4 27.7 21% 29.94 0.0
02 14:15 SW 16 G 23 10.00 Fair CLR 68.2 28.8 23% 29.95 0.0
02 13:55 W 16 G 24 10.00 Fair CLR 68 28.2 23% 29.97 0.0
02 13:35 SW 16 G 24 10.00 Fair CLR 67.1 28.6 24% 29.97 0.0
02 13:15 W 16 G 26 10.00 Fair CLR 66.6 27.9 23% 29.98 0.0
02 12:55 W 17 G 26 10.00 Fair CLR 66.4 27.9 66.6 40.6 23% 29.99 0.0
02 12:35 W 15 G 25 10.00 Fair CLR 66 28 24% 30 0.0
02 12:15 W 20 G 26 10.00 Fair CLR 65.3 28.8 25% 30.01 0.0
02 11:55 W 18 10.00 Fair CLR 64.4 29.7 27% 30.02 0.0
02 11:35 W 17 G 22 10.00 Fair CLR 63.7 29.8 28% 30.02 0.0
02 11:15 W 13 G 23 10.00 Fair CLR 62.2 30.2 30% 30.03 0.0
02 10:55 W 15 10.00 Fair CLR 60.6 30 31% 30.04 0.0
02 10:35 SW 15 G 22 10.00 Fair CLR 59.4 29.1 32% 30.05 0.0
02 10:15 SW 14 G 20 10.00 Fair CLR 58.3 28.4 32% 30.05 0.0
02 09:55 SW 15 G 21 10.00 Fair CLR 57.4 28.2 33% 30.05 0.0
02 09:35 SW 16 G 21 10.00 Fair CLR 55.6 27 33% 30.06 0.0
02 09:15 SW 17 G 22 10.00 Fair CLR 53.8 26.2 35% 30.07 0.0
02 08:55 SW 13 G 23 10.00 Fair CLR 51.3 26.2 38% 30.07 0.0
02 08:35 SW 15 G 22 10.00 Fair CLR 49.1 27 42% 44 30.07 0.0
02 08:15 SW 10 10.00 Fair CLR 46.8 27.5 47% 42 30.07 0.0
02 07:55 SW 8 10.00 Fair CLR 45.1 27.5 50% 41 30.08 0.0
02 07:35 SW 10 10.00 Fair CLR 43.7 27 52% 39 30.09 0.0
02 07:15 SW 8 10.00 Fair CLR 41.9 27.3 56% 37 30.09 0.0
02 06:55 SW 8 10.00 Fair CLR 40.5 27.1 40.5 36.5 59% 36 30.09 0.0
02 06:35 SW 8 10.00 Partly Cloudy SCT090 40.1 27.3 60% 35 30.09 0.0
02 06:15 SW 7 10.00 Partly Cloudy SCT090 39.6 27.5 62% 35 30.09 0.0
02 05:55 SW 10 10.00 Fair CLR 38.7 27.5 64% 32 30.1 0.0
02 05:35 SW 8 10.00 Fair CLR 39.2 27.5 63% 34 30.1 0.0
02 05:15 SW 8 10.00 Fair CLR 39.2 27.9 64% 34 30.11 0.0
02 04:55 SW 9 10.00 Fair CLR 38.5 28 66% 33 30.11 0.0
02 04:35 SW 8 10.00 Fair CLR 37.9 27.9 67% 33 30.11 0.0
02 04:15 SW 7 10.00 Fair CLR 38.5 28 66% 34 30.12 0.0
02 03:55 SW 7 10.00 Fair CLR 38.3 28.2 67% 34 30.11 0.0
02 03:35 SW 5 10.00 Fair CLR 37.8 28 68% 35 30.11 0.0
02 03:15 SW 6 10.00 Fair CLR 38.1 27.9 67% 34 30.11 0.0
02 02:55 SW 6 10.00 Fair CLR 37.4 27.5 68% 33 30.12 0.0
02 02:35 SW 6 10.00 Fair CLR 38.5 27.5 65% 35 30.12 0.0
02 02:15 SW 5 10.00 Fair CLR 37.8 28 68% 35 30.12 0.0
02 01:55 SW 6 10.00 Fair CLR 37.8 28.2 69% 34 30.12 0.0
02 01:35 SW 5 10.00 Fair CLR 36.5 28.4 73% 33 30.12 0.0
02 01:15 SW 5 10.00 Fair CLR 36.9 28.4 72% 34 30.13 0.0
02 00:55 SW 5 10.00 Fair CLR 37.8 28.2 52.7 35.1 69% 35 30.13 0.0
02 00:35 SW 6 10.00 Fair CLR 38.1 28 67% 34 30.14 0.0
02 00:15 SW 6 10.00 Fair CLR 35.1 29.3 80% 31 30.14 0.0
01 23:55 SW 3 10.00 Fair CLR 35.8 29.1 77% 30.14 0.0
01 23:35 SW 5 10.00 Fair CLR 35.6 29.3 78% 32 30.14 0.0
01 23:15 SW 3 10.00 Fair CLR 36.5 29.1 75% 30.14 0.0
01 22:55 SW 3 10.00 Fair CLR 36.9 29.3 74% 30.14 0.0
01 22:35 Calm 10.00 Fair CLR 37.6 31.1 78% 30.14 0.0
01 22:15 Calm 10.00 Fair CLR 39.7 31.6 73% 30.14 0.0
01 21:55 Calm 10.00 Fair CLR 41.9 30.4 64% 30.13 0.0
01 21:35 Calm 10.00 Fair CLR 43.9 28.9 56% 30.13 0.0
01 21:15 Calm 10.00 Fair CLR 45.1 26.8 49% 30.12 0.0
01 20:55 Calm 10.00 Fair CLR 46.6 25 43% 30.12 0.0
01 20:35 Calm 10.00 Fair CLR 47.8 24.3 40% 30.12 0.0
01 20:15 N 3 10.00 Fair CLR 50 23.4 35% 30.12 0.0
01 19:55 N 5 10.00 Fair CLR 51.3 22.8 33% 30.12 0.0
01 19:35 N 8 10.00 Fair CLR 52 23.4 33% 30.12 0.0
01 19:15 NW 7 10.00 Fair CLR 52.7 23.4 32% 30.11 0.0
01 18:55 N 8 10.00 Fair CLR 52.7 23.2 54.7 49.5 32% 30.11 0.0
01 18:35 N 12 10.00 Fair CLR 52.3 22.6 31% 30.11 0.0
01 18:15 N 9 10.00 Partly Cloudy SCT060 53.6 22.1 29% 30.12 0.0
01 17:55 N 12 10.00 Partly Cloudy SCT060 54.3 23.5 30% 30.12 0.0
01 17:35 N 9 10.00 Partly Cloudy SCT060 54.1 23.5 30% 30.12 0.0
01 17:15 N 5 10.00 Partly Cloudy SCT060 54.1 23.2 30% 30.12 0.0
01 16:55 N 7 10.00 Fair CLR 54 23.9 31% 30.12 0.0
01 16:35 N 10 10.00 Fair CLR 53.6 23.7 31% 30.12 0.0
01 16:15 N 8 10.00 Fair CLR 53.2 23.7 32% 30.12 0.0
01 15:55 N 10 10.00 Partly Cloudy SCT060 53.6 24.3 32% 30.13 0.0
01 15:35 N 10 10.00 Partly Cloudy SCT060 54.1 24.6 32% 30.13 0.0
01 15:15 N 10 G 17 10.00 Partly Cloudy SCT060 52.9 24.1 33% 30.14 0.0
01 14:55 N 9 10.00 Partly Cloudy SCT050 51.4 24.4 35% 30.14 0.0
01 14:35 N 8 G 21 10.00 Partly Cloudy SCT050 52.7 25.5 35% 30.14 0.0
01 14:15 NW 3 10.00 Mostly Cloudy BKN050 50.9 24.6 36% 30.14 0.0
01 13:55 N 7 G 18 10.00 Mostly Cloudy BKN050 50.2 24.3 36% 30.14 0.0
01 13:35 N 7 G 18 10.00 Partly Cloudy SCT050 51.8 25 35% 30.14 0.0
01 13:15 NW 13 G 17 10.00 Partly Cloudy SCT050 51.1 24.6 36% 30.14 0.0
01 12:55 N 9 G 20 10.00 Mostly Cloudy BKN050 49.5 25.9 50.2 33.1 40% 46 30.14 0.0
01 12:35 NE 9 G 16 10.00 Mostly Cloudy BKN050 49.5 25.3 39% 46 30.14 0.0
01 12:15 N 12 10.00 Mostly Cloudy BKN048 48.9 25.2 40% 45 30.15 0.0
01 11:55 N 10 10.00 Mostly Cloudy BKN046 48.7 25.9 41% 45 30.15 0.0
01 11:35 N 9 10.00 Mostly Cloudy BKN044 46.8 25.7 44% 43 30.15 0.0
01 11:15 N 10 10.00 Partly Cloudy SCT036 47.1 28.6 49% 43 30.15 0.0
01 10:55 N 13 G 16 10.00 Partly Cloudy SCT034 46.6 28.8 50% 41 30.15 0.0
01 10:35 NW 12 10.00 Fair CLR 45 28.6 53% 40 30.15 0.0
01 10:15 N 12 G 16 10.00 Fair CLR 44.4 28.8 54% 39 30.14 0.0
01 09:55 NW 12 G 16 10.00 Fair CLR 42.8 29.5 59% 37 30.15 0.0
01 09:35 NW 10 10.00 Fair CLR 41.5 29.8 63% 36 30.15 0.0
01 09:15 NW 12 10.00 Fair CLR 40.1 29.7 66% 34 30.14 0.0
01 08:55 NW 9 10.00 Fair CLR 38.7 29.7 70% 33 30.14 0.0
01 08:35 NW 12 10.00 Fair CLR 37.2 29.1 73% 30 30.14 0.0
01 08:15 NW 12 10.00 Fair CLR 36.1 28.9 75% 29 30.14 0.0
01 07:55 NW 10 10.00 Fair CLR 35.2 28.4 76% 28 30.14 0.0
01 07:35 NW 10 10.00 Fair CLR 34.7 28.6 78% 28 30.13 0.0
01 07:15 NW 9 10.00 Fair CLR 33.6 28 80% 27 30.12 0.0
01 06:55 NW 7 10.00 Fair CLR 32.9 27.7 40.3 32.4 81% 27 30.12 0.0
01 06:35 NW 9 10.00 Fair CLR 32.5 27.5 82% 26 30.12 0.0
01 06:15 NW 10 10.00 Fair CLR 32.5 27.9 83% 25 30.11 0.0
01 05:55 NW 10 10.00 Fair CLR 32.9 28.4 84% 25 30.11 0.0
01 05:35 NW 7 10.00 Fair CLR 32.4 28.6 86% 27 30.11 0.0
01 05:15 NW 7 10.00 Fair CLR 33.1 29.1 85% 28 30.11 0.0
01 04:55 NW 8 10.00 Fair CLR 33.6 29.7 85% 27 30.1 0.0
01 04:35 W 6 10.00 Partly Cloudy SCT060 34 30 85% 29 30.1 0.0
01 04:15 W 6 10.00 Mostly Cloudy BKN060 34.5 30.4 85% 30 30.1 0.0
01 03:55 NW 6 10.00 Partly Cloudy SCT060 34 30.7 88% 29 30.09 0.0
01 03:35 NW 6 10.00 Fair CLR 34.7 30.7 85% 30 30.09 0.0
01 03:15 NW 7 10.00 Partly Cloudy SCT055 35.2 31.1 85% 30 30.09 0.0
01 02:55 W 7 10.00 Overcast OVC055 36.7 31.3 81% 32 30.09 0.0
01 02:35 NW 5 10.00 Mostly Cloudy BKN047 BKN055 37.4 31.1 78% 34 30.1 0.0
01 02:15 NW 7 10.00 Partly Cloudy SCT043 SCT065 37.8 31.5 78% 33 30.1 0.0
01 01:55 NW 8 10.00 Mostly Cloudy BKN065 38.8 31.6 75% 34 30.1 0.0
01 01:35 NW 8 10.00 Overcast OVC065 39.2 32 75% 34 30.1 0.0
01 01:15 NW 10 10.00 Overcast SCT055 OVC065 39.6 32.2 75% 34 30.09 0.0
01 00:55 NW 12 G 16 10.00 Overcast SCT042 OVC055 40.3 33.3 50 40.3 76% 34 30.09 0.0
01 00:35 NW 9 10.00 Overcast SCT040 BKN050 OVC070 40.6 34.9 80% 35 30.08 0.0
01 00:15 NW 9 10.00 Overcast OVC070 40.8 37 86% 36 30.08 0.0
30 23:55 NW 8 10.00 Overcast OVC070 41.7 38.1 87% 37 30.07 0.0
30 23:35 NW 6 10.00 Overcast SCT060 OVC070 41.9 38.3 87% 39 30.07 0.0
30 23:15 W 6 10.00 Overcast OVC070 41 37.9 89% 38 30.07 0.0
30 22:55 W 5 10.00 Overcast OVC070 41 37.8 88% 38 30.07 0.0
30 22:35 W 5 10.00 Overcast BKN070 OVC100 41.5 38.1 88% 39 30.07 0.0
30 22:15 W 5 10.00 Overcast BKN070 OVC100 42.1 37.9 85% 40 30.06 0.0
30 21:55 W 6 10.00 Overcast SCT070 OVC100 42.4 37.8 84% 39 30.06 0.0
30 21:35 W 6 10.00 Overcast SCT030 BKN070 OVC090 42.8 37.6 82% 40 30.06 0.0
30 21:15 NW 8 G 12 10.00 Light Rain SCT022 BKN034 OVC049 43.3 36.7 77% 39 30.05 0.0
30 20:55 NW 9 10.00 Rain SCT022 BKN044 OVC060 42.6 36.7 80% 38 30.06 0.0
30 20:35 N 7 10.00 Mostly Cloudy SCT042 SCT050 BKN095 42.3 35.8 78% 38 30.05 0.0
30 20:15 N 10 10.00 Partly Cloudy SCT035 SCT042 SCT055 43 35.2 74% 38 30.04 0.0
30 19:55 N 14 G 21 10.00 Mostly Cloudy SCT035 SCT047 BKN070 48.4 34.9 60% 43 30.04 0.0
30 19:35 W 10 10.00 Partly Cloudy SCT100 48.6 33.8 57% 45 30.02 0.0
30 19:15 W 8 10.00 Partly Cloudy SCT100 49.3 35.6 59% 46 30.02 0.0
30 18:55 W 13 10.00 Partly Cloudy SCT085 SCT120 50 36.3 54.1 46.4 60% 46 30.02 0.0
30 18:35 W 5 10.00 Partly Cloudy SCT047 SCT065 SCT085 47.8 36.7 65% 46 30.03 0.0
30 18:15 W 6 10.00 Mostly Cloudy SCT030 SCT042 BKN050 47.8 37 66% 46 30.03 0.0
30 17:55 NW 18 G 29 10.00 Overcast SCT039 BKN045 OVC060 46.8 36.1 67% 40 30.05 0.0
30 17:35 NW 17 G 25 10.00 Overcast BKN060 OVC070 49.1 34.9 58% 43 30.05 0.0
30 17:15 W 10 10.00 Overcast BKN060 BKN070 OVC090 52.5 29.5 41% 30.02 0.0
30 16:55 W 16 G 20 10.00 Mostly Cloudy SCT060 BKN070 BKN090 53.2 27.3 37% 30.03 0.0
30 16:35 NW 7 10.00 Mostly Cloudy SCT060 SCT070 BKN080 53.1 30.7 43% 30.04 0.0
30 16:15 W 7 10.00 Partly Cloudy SCT065 SCT080 SCT090 53.8 31.1 42% 30.05 0.0
30 15:55 NW 6 10.00 Overcast SCT030 BKN055 OVC080 51.8 31.1 45% 30.06 0.0
30 15:35 NW 14 G 22 10.00 Light Drizzle SCT027 BKN049 OVC060 50 32 50% 45 30.07 0.0
30 15:15 NW 12 G 28 10.00 Overcast SCT045 BKN060 OVC070 52.3 27.5 38% 30.07 0.0
30 14:55 NW 12 G 18 10.00 Overcast SCT045 OVC060 51.4 26.8 38% 30.07 0.0
30 14:35 W 16 G 25 10.00 Overcast BKN060 OVC070 52.2 24.8 35% 30.07 0.0
30 14:15 NW 13 G 17 10.00 Overcast BKN060 BKN070 OVC085 52.9 26.6 36% 30.07 0.0
30 13:55 W 14 G 18 10.00 Overcast SCT050 OVC085 52.2 26.6 37% 30.09 0.0
30 13:35 W 9 10.00 Mostly Cloudy BKN050 BKN060 51.8 27.1 39% 30.1 0.0
30 13:15 NW 8 10.00 Partly Cloudy SCT060 52.3 27.9 39% 30.1 0.0
30 12:55 NW 7 10.00 Partly Cloudy SCT048 SCT100 52 27.5 52 33.3 39% 30.12 0.0
30 12:35 W 12 10.00 Partly Cloudy SCT100 50.5 27.3 41% 30.12 0.0
30 12:15 N 8 10.00 Fair CLR 50 27.5 42% 47 30.13 0.0
30 11:55 W 9 10.00 Fair CLR 48.4 27.7 45% 45 30.14 0.0
30 11:35 N 10 10.00 Partly Cloudy SCT070 47.5 27.3 46% 43 30.14 0.0
30 11:15 NW 8 10.00 Overcast OVC070 46.6 27.5 48% 43 30.14 0.0
30 10:55 W 7 10.00 Partly Cloudy SCT070 45.9 27 48% 43 30.15 0.0
30 10:35 N 7 10.00 Fair CLR 45.3 27.7 50% 42 30.15 0.0
30 10:15 N 6 10.00 Fair CLR 45 27.1 50% 42 30.14 0.0
30 09:55 N 8 10.00 Fair CLR 43.9 27.3 52% 40 30.14 0.0
30 09:35 NW 8 10.00 Fair CLR 43 27.5 54% 39 30.15 0.0
30 09:15 NW 7 10.00 Fair CLR 41.9 27.3 56% 38 30.15 0.0
30 08:55 NW 6 10.00 Fair CLR 40.5 28.6 63% 37 30.15 0.0
30 08:35 NW 5 10.00 Fair CLR 39.4 29.5 68% 37 30.15 0.0
30 08:15 NW 6 10.00 Fair CLR 37.9 30.4 74% 34 30.15 0.0
30 07:55 NW 7 10.00 Fair CLR 36.7 31.1 80% 32 30.14 0.0
30 07:35 NW 7 10.00 Fair CLR 35.4 31.1 84% 30 30.14 0.0
30 07:15 NW 6 10.00 Fair CLR 33.8 30.2 87% 29 30.14 0.0
30 06:55 NW 5 10.00 Fair CLR 33.1 30.2 44.1 32 89% 29 30.14 0.0
30 06:35 NW 5 10.00 Fair CLR 32 29.3 90% 28 30.14 0.0
30 06:15 NW 5 10.00 Fair CLR 32.4 29.3 89% 28 30.14 0.0
30 05:55 NW 5 10.00 Fair CLR 32.5 29.7 89% 29 30.14 0.0
30 05:35 W 5 10.00 Fair CLR 33.3 30.2 89% 30 30.14 0.0
30 05:15 NW 6 10.00 Fair CLR 34.2 30.6 87% 30 30.14 0.0
30 04:55 NW 6 10.00 Fair CLR 35.1 31.1 86% 31 30.14 0.0
30 04:35 Calm 10.00 Partly Cloudy SCT080 35.6 31.1 84% 30.13 0.0
30 04:15 NW 5 10.00 Partly Cloudy SCT080 36.9 30.9 79% 34 30.13 0.0
30 03:55 NW 5 10.00 Partly Cloudy SCT080 37.8 30.7 76% 35 30.13 0.0
30 03:35 NW 5 10.00 Mostly Cloudy SCT055 BKN080 39 30.9 73% 36 30.13 0.0
30 03:15 NW 5 10.00 Overcast OVC055 39.9 31.1 71% 37 30.13 0.0
30 02:55 NW 6 10.00 Overcast BKN050 BKN075 OVC120 40.1 31.1 70% 37 30.13 0.0
30 02:35 NW 5 10.00 Overcast BKN050 BKN065 OVC095 41.4 30 64% 39 30.14 0.0
30 02:15 N 5 10.00 Overcast OVC050 41.9 30 63% 40 30.14 0.0
30 01:55 N 6 10.00 Overcast OVC050 42.3 29.5 61% 39 30.14 0.0
30 01:35 N 7 10.00 Overcast OVC050 42.8 31.1 63% 39 30.13 0.0
30 01:15 N 9 10.00 Overcast OVC048 43 31.5 64% 38 30.13 0.0
30 00:55 N 9 10.00 Overcast OVC046 44.2 30.7 57.4 44.2 59% 40 30.13 0.0
30 00:35 N 9 10.00 Overcast BKN042 OVC060 44.8 30.9 58% 40 30.12 0.0
30 00:15 N 8 10.00 Overcast BKN060 OVC100 44.8 31.5 60% 41 30.11 0.0
29 23:55 N 6 10.00 Overcast SCT060 OVC110 45.5 32 59% 43 30.11 0.0
29 23:35 N 7 10.00 Overcast SCT050 BKN070 OVC110 45.7 32.4 60% 43 30.11 0.0
29 23:15 N 5 10.00 Overcast BKN050 BKN080 OVC110 45.9 34.2 64% 44 30.11 0.0
29 22:55 N 6 10.00 Overcast SCT050 BKN090 OVC120 46.4 33.8 62% 44 30.1 0.0
29 22:35 N 5 10.00 Mostly Cloudy BKN050 BKN090 BKN120 46.4 33.6 61% 45 30.09 0.0
29 22:15 N 6 10.00 Partly Cloudy SCT050 SCT090 46.8 32.9 59% 44 30.09 0.0
29 21:55 N 6 10.00 Partly Cloudy SCT100 47.8 32.7 56% 46 30.07 0.0
29 21:35 N 8 10.00 Mostly Cloudy BKN100 48.9 33.3 55% 46 30.07 0.0
29 21:15 N 6 10.00 Mostly Cloudy SCT060 BKN110 48.7 35.2 60% 47 30.06 0.0
29 20:55 NW 7 10.00 Partly Cloudy SCT060 48.4 35.8 62% 46 30.05 0.0
29 20:35 W 7 10.00 Fair CLR 50.2 35.1 56% 30.04 0.0
29 20:15 W 9 10.00 Mostly Cloudy SCT070 BKN110 52.2 34.5 51% 30.04 0.0
29 19:55 W 7 10.00 Mostly Cloudy BKN070 55.4 32.9 43% 30.03 0.0
29 19:35 W 12 10.00 Partly Cloudy SCT080 SCT100 54.5 32.2 43% 30.02 0.0
29 19:15 W 8 10.00 Mostly Cloudy BKN090 55.8 30.2 38% 30.02 0.0
29 18:55 W 10 10.00 Partly Cloudy SCT080 57 28.9 57.9 54.5 34% 30.02 0.0
29 18:35 W 6 10.00 Partly Cloudy SCT085 57.2 29.7 35% 30.02 0.0
29 18:15 W 5 10.00 Partly Cloudy SCT080 57.6 29.3 34% 30.02 0.0
29 17:55 NW 7 10.00 Partly Cloudy SCT080 56.7 28.6 34% 30.03 0.0
29 17:35 N 7 10.00 Overcast OVC090 56.7 29.5 35% 30.03 0.0
Date Time (cdt) Wind (mph) Vis. (mi.) Weather Sky Cond. Air Dwpt Max. Min. Relative Humidity Wind Chill (°F) Heat Index (°F) altimeter (in) sea level (mb) 1 hr 3 hr 6 hr
6 hour
Temperature (ºF) Pressure Precipitation (in)